createdAt,value
2018-08-18T00:02:33.698Z,98.90
2018-08-18T00:05:07.750Z,98.90
2018-08-18T00:07:40.757Z,98.90
2018-08-18T00:10:15.557Z,99.00
2018-08-18T00:12:48.431Z,99.10
2018-08-18T00:15:20.859Z,99.10
2018-08-18T00:17:53.328Z,99.30
2018-08-18T00:20:25.744Z,99.50
2018-08-18T00:22:58.223Z,99.50
2018-08-18T00:25:30.693Z,99.50
2018-08-18T00:28:20.447Z,99.60
2018-08-18T00:30:53.221Z,99.70
2018-08-18T00:33:25.630Z,99.80
2018-08-18T00:35:58.034Z,99.90
2018-08-18T00:38:30.454Z,99.90
2018-08-18T00:41:02.858Z,99.90
2018-08-18T00:43:35.346Z,99.90
2018-08-18T00:46:07.799Z,99.90
2018-08-18T00:48:40.403Z,99.90
2018-08-18T00:51:14.846Z,99.90
2018-08-18T00:53:47.196Z,99.90
2018-08-18T00:56:19.743Z,99.90
2018-08-18T00:58:53.439Z,99.90
2018-08-18T01:01:25.891Z,99.90
2018-08-18T01:03:59.282Z,99.90
2018-08-18T01:06:36.198Z,99.90
2018-08-18T01:09:11.232Z,99.90
2018-08-18T01:11:43.741Z,99.90
2018-08-18T01:14:21.079Z,99.90
2018-08-18T01:16:53.621Z,99.90
2018-08-18T01:19:26.013Z,99.90
2018-08-18T01:21:58.650Z,99.90
2018-08-18T01:24:31.047Z,99.90
2018-08-18T01:27:03.964Z,99.90
2018-08-18T01:29:36.363Z,99.90
2018-08-18T01:32:08.808Z,99.90
2018-08-18T01:34:41.212Z,99.90
2018-08-18T01:39:52.351Z,99.90
2018-08-18T01:42:24.739Z,99.90
2018-08-18T01:44:57.179Z,99.90
2018-08-18T01:47:30.148Z,99.90
2018-08-18T01:50:08.139Z,99.90
2018-08-18T01:52:40.826Z,99.90
2018-08-18T01:55:14.161Z,99.90
2018-08-18T01:57:46.592Z,99.90
2018-08-18T02:00:24.474Z,99.90
2018-08-18T02:02:56.937Z,99.90
2018-08-18T02:05:29.407Z,99.90
2018-08-18T02:08:01.878Z,99.90
2018-08-18T02:10:34.606Z,99.90
2018-08-18T02:13:07.163Z,99.90
2018-08-18T02:15:39.738Z,99.90
2018-08-18T02:18:12.119Z,99.90
2018-08-18T02:20:44.643Z,99.90
2018-08-18T02:23:17.186Z,99.90
2018-08-18T02:25:49.651Z,99.90
2018-08-18T02:28:27.258Z,99.90
2018-08-18T02:30:59.910Z,99.90
2018-08-18T02:36:05.302Z,99.90
2018-08-18T02:38:41.233Z,99.90
2018-08-18T02:41:13.862Z,99.90
2018-08-18T02:43:46.660Z,99.90
2018-08-18T02:46:31.422Z,99.90
2018-08-18T02:49:04.588Z,99.90
2018-08-18T02:51:37.331Z,99.90
2018-08-18T02:54:10.011Z,99.90
2018-08-18T02:56:43.108Z,99.90
2018-08-18T02:59:15.719Z,99.90
2018-08-18T03:01:48.360Z,99.90
2018-08-18T03:04:21.163Z,99.90
2018-08-18T03:06:53.739Z,99.90
2018-08-18T03:09:26.314Z,99.90
2018-08-18T03:11:58.978Z,99.90
2018-08-18T03:14:31.630Z,99.90
2018-08-18T03:17:04.210Z,99.90
2018-08-18T03:19:36.758Z,99.90
2018-08-18T03:22:09.305Z,99.90
2018-08-18T03:24:41.702Z,99.90
2018-08-18T03:27:14.586Z,99.90
2018-08-18T03:29:52.183Z,99.90
2018-08-18T03:32:25.332Z,99.90
2018-08-18T03:34:58.688Z,99.90
2018-08-18T03:37:31.712Z,99.90
2018-08-18T03:40:04.581Z,99.90
2018-08-18T03:42:42.151Z,99.90
2018-08-18T03:45:14.846Z,99.90
2018-08-18T03:47:47.326Z,99.90
2018-08-18T03:50:20.339Z,99.90
2018-08-18T03:52:53.106Z,99.90
2018-08-18T03:55:36.026Z,99.90
2018-08-18T03:58:08.751Z,99.90
2018-08-18T04:00:41.822Z,99.90
2018-08-18T04:03:14.648Z,99.90
2018-08-18T04:05:47.218Z,99.90
2018-08-18T04:08:19.941Z,99.90
2018-08-18T04:10:52.386Z,99.90
2018-08-18T04:13:24.862Z,99.90
2018-08-18T04:15:57.270Z,99.90
2018-08-18T04:18:29.717Z,99.90
2018-08-18T04:21:02.122Z,99.90
2018-08-18T04:23:34.470Z,99.90
2018-08-18T04:26:06.924Z,99.90
2018-08-18T04:28:39.299Z,99.90
2018-08-18T04:33:45.264Z,99.90
2018-08-18T04:59:21.205Z,99.90
2018-08-18T05:01:53.581Z,99.90
2018-08-18T05:04:25.986Z,99.90
2018-08-18T05:06:58.409Z,99.90
2018-08-18T05:09:30.782Z,99.90
2018-08-18T05:12:03.242Z,99.90
2018-08-18T05:14:35.753Z,99.90
2018-08-18T05:17:08.435Z,99.90
2018-08-18T05:19:40.840Z,99.90
2018-08-18T05:22:13.248Z,99.90
2018-08-18T05:24:45.685Z,99.90
2018-08-18T05:27:18.935Z,99.90
2018-08-18T05:29:51.605Z,99.90
2018-08-18T05:32:24.053Z,99.90
2018-08-18T05:34:57.077Z,99.90
2018-08-18T05:37:29.426Z,99.90
2018-08-18T05:40:01.870Z,99.90
2018-08-18T05:42:34.282Z,99.90
2018-08-18T05:45:20.370Z,99.90
2018-08-18T05:47:53.206Z,99.90
2018-08-18T05:50:26.554Z,99.90
2018-08-18T05:53:13.832Z,99.90
2018-08-18T05:55:46.886Z,99.90
2018-08-18T05:58:19.337Z,99.90
2018-08-18T06:01:26.634Z,99.90
2018-08-18T06:04:03.851Z,99.90
2018-08-18T06:06:36.523Z,99.90
2018-08-18T06:09:10.694Z,99.90
2018-08-18T06:11:43.221Z,99.90
2018-08-18T06:14:16.163Z,99.90
2018-08-18T06:16:48.695Z,99.90
2018-08-18T06:19:21.137Z,99.90
2018-08-18T06:21:53.563Z,99.90
2018-08-18T06:24:25.953Z,99.90
2018-08-18T06:26:58.343Z,99.90
2018-08-18T06:29:30.773Z,99.90
2018-08-18T06:32:03.513Z,99.90
2018-08-18T06:34:36.032Z,99.90
2018-08-18T06:37:08.540Z,99.90
2018-08-18T06:39:54.995Z,99.90
2018-08-18T06:42:37.446Z,99.90
2018-08-18T06:45:12.258Z,99.90
2018-08-18T06:47:45.112Z,99.90
2018-08-18T06:50:18.610Z,99.90
2018-08-18T06:52:51.544Z,99.90
2018-08-18T06:55:24.499Z,99.90
2018-08-18T06:57:57.807Z,99.80
2018-08-18T07:00:30.247Z,99.80
2018-08-18T07:03:07.510Z,99.90
2018-08-18T07:05:40.091Z,99.80
2018-08-18T07:08:12.665Z,99.60
2018-08-18T07:10:45.077Z,99.20
2018-08-18T07:13:17.514Z,98.70
2018-08-18T07:15:49.960Z,98.60
2018-08-18T07:18:22.468Z,98.50
2018-08-18T07:20:54.933Z,98.80
2018-08-18T07:23:27.464Z,98.20
2018-08-18T07:28:33.185Z,98.10
2018-08-18T07:31:05.572Z,97.30
2018-08-18T07:33:37.995Z,97.70
2018-08-18T07:36:10.419Z,97.10
2018-08-18T07:38:42.886Z,96.30
2018-08-18T07:43:47.686Z,99.90
2018-08-18T07:46:20.161Z,99.90
2018-08-18T07:48:52.581Z,99.90
2018-08-18T07:51:25.026Z,96.80
2018-08-18T07:53:57.510Z,96.20
2018-08-18T07:56:30.063Z,96.30
2018-08-18T07:59:02.949Z,96.10
2018-08-18T08:01:35.839Z,95.90
2018-08-18T08:04:08.516Z,96.20
2018-08-18T08:06:41.009Z,96.10
2018-08-18T08:09:13.415Z,95.60
2018-08-18T08:16:50.975Z,98.10
2018-08-18T08:19:23.921Z,94.60
2018-08-18T08:21:56.577Z,94.70
2018-08-18T08:24:29.537Z,94.50
2018-08-18T08:27:02.273Z,94.80
2018-08-18T08:29:37.751Z,94.20
2018-08-18T08:32:10.286Z,94.50
2018-08-18T08:34:44.388Z,93.60
2018-08-18T08:37:16.982Z,93.60
2018-08-18T08:39:49.555Z,92.70
2018-08-18T08:42:22.119Z,92.80
2018-08-18T08:44:55.749Z,92.90
2018-08-18T08:47:29.103Z,92.30
2018-08-18T08:50:01.840Z,91.70
2018-08-18T08:52:39.283Z,91.70
2018-08-18T08:55:12.199Z,90.70
2018-08-18T08:57:45.174Z,91.20
2018-08-18T09:00:17.903Z,90.90
2018-08-18T09:02:50.689Z,90.80
2018-08-18T09:05:23.195Z,90.90
2018-08-18T09:07:55.797Z,90.90
2018-08-18T09:10:28.651Z,90.80
2018-08-18T09:13:01.216Z,90.60
2018-08-18T09:15:33.746Z,90.50
2018-08-18T09:18:06.565Z,90.60
2018-08-18T09:20:44.766Z,90.00
2018-08-18T09:23:17.292Z,89.50
2018-08-18T09:25:49.861Z,89.90
2018-08-18T09:28:22.413Z,89.80
2018-08-18T09:30:55.104Z,89.00
2018-08-18T09:33:27.896Z,88.80
2018-08-18T09:36:03.936Z,88.40
2018-08-18T09:41:09.106Z,87.50
2018-08-18T09:43:42.241Z,88.60
2018-08-18T09:46:14.701Z,88.00
2018-08-18T09:48:47.489Z,89.10
2018-08-18T09:51:20.046Z,88.50
2018-08-18T09:56:25.713Z,88.40
2018-08-18T09:58:58.443Z,88.50
2018-08-18T10:01:31.059Z,88.10
2018-08-18T10:04:03.730Z,88.50
2018-08-18T10:06:36.926Z,89.50
2018-08-18T10:09:10.330Z,87.80
2018-08-18T10:11:43.044Z,86.00
2018-08-18T10:14:15.869Z,86.30
2018-08-18T10:16:48.944Z,86.10
2018-08-18T10:19:21.776Z,86.60
2018-08-18T10:21:54.556Z,86.30
2018-08-18T10:24:27.235Z,88.70
2018-08-18T10:27:03.864Z,94.00
2018-08-18T10:29:36.689Z,91.60
2018-08-18T10:32:09.451Z,85.20
2018-08-18T10:34:42.568Z,84.70
2018-08-18T10:37:15.307Z,85.30
2018-08-18T10:39:49.781Z,86.40
2018-08-18T10:42:25.305Z,86.00
2018-08-18T10:44:59.548Z,84.80
2018-08-18T10:47:32.209Z,83.40
2018-08-18T10:50:16.095Z,85.20
2018-08-18T10:52:57.288Z,85.90
2018-08-18T10:55:31.307Z,84.50
2018-08-18T10:58:05.530Z,84.50
2018-08-18T11:00:38.394Z,83.50
2018-08-18T11:03:11.270Z,83.60
2018-08-18T11:05:43.766Z,83.40
2018-08-18T11:08:16.822Z,83.70
2018-08-18T11:10:49.779Z,83.50
2018-08-18T11:13:22.750Z,82.70
2018-08-18T11:15:55.479Z,82.60
2018-08-18T11:18:28.494Z,82.20
2018-08-18T11:21:01.176Z,82.90
2018-08-18T11:26:06.456Z,81.00
2018-08-18T11:28:39.336Z,83.20
2018-08-18T11:31:11.930Z,80.90
2018-08-18T11:33:45.597Z,82.30
2018-08-18T11:36:18.641Z,79.90
2018-08-18T11:38:51.787Z,81.90
2018-08-18T11:41:24.518Z,79.80
2018-08-18T11:43:57.283Z,79.80
2018-08-18T11:46:32.424Z,80.40
2018-08-18T11:49:05.369Z,79.70
2018-08-18T11:51:41.357Z,80.90
2018-08-18T11:54:14.239Z,80.90
2018-08-18T11:56:51.545Z,81.30
2018-08-18T11:59:24.299Z,79.40
2018-08-18T12:01:57.203Z,78.70
2018-08-18T12:04:30.408Z,78.50
2018-08-18T12:07:03.310Z,79.10
2018-08-18T12:09:39.859Z,79.80
2018-08-18T12:12:12.504Z,79.00
2018-08-18T12:14:45.538Z,79.20
2018-08-18T12:17:18.990Z,79.20
2018-08-18T12:19:56.357Z,79.50
2018-08-18T12:22:29.740Z,78.90
2018-08-18T12:25:03.440Z,78.80
2018-08-18T12:27:37.002Z,78.40
2018-08-18T12:30:20.598Z,78.90
2018-08-18T12:32:54.214Z,78.80
2018-08-18T12:35:31.822Z,79.00
2018-08-18T12:38:04.890Z,79.30
2018-08-18T12:40:37.705Z,79.00
2018-08-18T12:43:10.999Z,79.80
2018-08-18T12:45:50.245Z,79.60
2018-08-18T12:48:24.637Z,79.40
2018-08-18T12:50:58.910Z,78.40
2018-08-18T12:53:37.605Z,78.30
2018-08-18T12:56:14.928Z,77.50
2018-08-18T12:58:49.826Z,77.90
2018-08-18T13:01:39.123Z,77.10
2018-08-18T13:04:14.133Z,77.70
2018-08-18T13:06:48.511Z,78.50
2018-08-18T13:09:22.562Z,77.90
2018-08-18T13:11:56.658Z,78.30
2018-08-18T13:14:30.317Z,78.70
2018-08-18T13:17:02.851Z,78.70
2018-08-18T13:19:35.387Z,77.80
2018-08-18T13:22:08.162Z,77.80
2018-08-18T13:24:40.837Z,77.80
2018-08-18T13:27:13.595Z,78.80
2018-08-18T13:29:46.217Z,79.10
2018-08-18T13:32:18.857Z,79.80
2018-08-18T13:34:51.854Z,81.10
2018-08-18T13:37:24.466Z,80.80
2018-08-18T13:39:58.598Z,81.40
2018-08-18T13:42:32.449Z,80.60
2018-08-18T13:45:05.225Z,79.40
2018-08-18T13:47:38.083Z,80.30
2018-08-18T13:50:12.770Z,78.70
2018-08-18T13:52:48.094Z,78.20
2018-08-18T13:55:25.245Z,79.30
2018-08-18T13:57:58.278Z,79.40
2018-08-18T14:00:30.922Z,79.30
2018-08-18T14:03:18.326Z,80.20
2018-08-18T14:05:52.838Z,79.80
2018-08-18T14:08:25.745Z,79.80
2018-08-18T14:10:59.359Z,80.10
2018-08-18T14:13:32.431Z,80.70
2018-08-18T14:16:05.979Z,80.40
2018-08-18T14:18:41.049Z,79.80
2018-08-18T14:21:14.201Z,79.70
2018-08-18T14:23:48.265Z,79.80
2018-08-18T14:26:22.512Z,80.00
2018-08-18T14:28:55.373Z,79.10
2018-08-18T14:31:28.766Z,79.10
2018-08-18T14:34:04.472Z,78.90
2018-08-18T14:36:36.989Z,78.60
2018-08-18T14:39:10.150Z,78.80
2018-08-18T14:41:43.062Z,78.90
2018-08-18T14:44:16.304Z,78.70
2018-08-18T14:46:51.634Z,78.80
2018-08-18T14:49:24.318Z,78.70
2018-08-18T14:51:57.054Z,78.50
2018-08-18T14:54:31.355Z,78.10
2018-08-18T14:57:04.069Z,77.20
2018-08-18T14:59:37.973Z,77.90
2018-08-18T15:02:11.606Z,78.10
2018-08-18T15:04:44.736Z,77.60
2018-08-18T15:07:18.385Z,78.30
2018-08-18T15:09:51.376Z,77.40
2018-08-18T15:12:25.541Z,77.10
2018-08-18T15:14:58.908Z,76.80
2018-08-18T15:17:31.618Z,77.40
2018-08-18T15:20:05.713Z,77.10
2018-08-18T15:22:38.261Z,78.10
2018-08-18T15:25:10.972Z,78.60
2018-08-18T15:27:43.399Z,78.10
2018-08-18T15:30:17.426Z,78.80
2018-08-18T15:32:50.311Z,78.80
2018-08-18T15:35:24.355Z,77.90
2018-08-18T15:37:58.259Z,78.30
2018-08-18T15:40:31.142Z,78.00
2018-08-18T15:43:04.101Z,78.90
2018-08-18T15:45:56.019Z,79.00
2018-08-18T15:48:29.280Z,78.80
2018-08-18T15:51:03.063Z,79.20
2018-08-18T15:53:51.474Z,79.10
2018-08-18T15:56:25.138Z,78.90
2018-08-18T15:58:59.577Z,78.80
2018-08-18T16:01:33.640Z,79.30
2018-08-18T16:04:06.633Z,78.90
2018-08-18T16:06:39.406Z,78.80
2018-08-18T16:09:12.268Z,78.10
2018-08-18T16:11:45.279Z,78.30
2018-08-18T16:14:17.842Z,78.30
2018-08-18T16:17:00.558Z,78.80
2018-08-18T16:19:36.062Z,78.00
2018-08-18T16:22:08.771Z,77.70
2018-08-18T16:24:44.428Z,77.60
2018-08-18T16:27:17.636Z,76.90
2018-08-18T16:29:52.263Z,77.10
2018-08-18T16:32:27.432Z,76.50
2018-08-18T16:35:05.747Z,77.10
2018-08-18T16:37:42.065Z,76.50
2018-08-18T16:40:14.729Z,76.70
2018-08-18T16:42:47.628Z,76.80
2018-08-18T16:45:20.363Z,77.10
2018-08-18T16:47:54.690Z,77.20
2018-08-18T16:50:27.390Z,77.60
2018-08-18T16:53:00.800Z,77.50
2018-08-18T16:55:35.180Z,77.50
2018-08-18T16:58:08.166Z,77.70
2018-08-18T17:00:58.125Z,78.60
2018-08-18T17:03:33.131Z,78.30
2018-08-18T17:06:05.933Z,78.50
2018-08-18T17:08:38.805Z,78.40
2018-08-18T17:11:11.356Z,78.50
2018-08-18T17:13:43.829Z,78.60
2018-08-18T17:16:16.648Z,79.00
2018-08-18T17:18:51.082Z,79.80
2018-08-18T17:21:23.829Z,79.40
2018-08-18T17:23:56.506Z,79.30
2018-08-18T17:26:29.326Z,79.50
2018-08-18T17:29:02.143Z,79.80
2018-08-18T17:31:34.840Z,80.30
2018-08-18T17:34:09.115Z,81.10
2018-08-18T17:36:41.866Z,80.20
2018-08-18T17:39:14.623Z,80.00
2018-08-18T17:41:47.285Z,80.20
2018-08-18T17:44:19.767Z,80.30
2018-08-18T17:46:53.731Z,81.10
2018-08-18T17:49:27.207Z,82.40
2018-08-18T17:52:01.976Z,81.50
2018-08-18T17:54:35.740Z,81.70
2018-08-18T17:57:08.906Z,82.20
2018-08-18T17:59:42.171Z,82.90
2018-08-18T18:02:15.917Z,82.20
2018-08-18T18:04:48.413Z,83.10
2018-08-18T18:07:21.195Z,82.20
2018-08-18T18:09:54.078Z,81.80
2018-08-18T18:12:28.273Z,82.00
2018-08-18T18:15:01.385Z,82.10
2018-08-18T18:17:34.553Z,82.50
2018-08-18T18:20:07.681Z,83.30
2018-08-18T18:22:45.239Z,83.10
2018-08-18T18:25:19.640Z,84.30
2018-08-18T18:27:52.562Z,83.70
2018-08-18T18:30:26.506Z,85.20
2018-08-18T18:32:59.037Z,85.40
2018-08-18T18:35:31.734Z,85.60
2018-08-18T18:38:04.914Z,86.20
2018-08-18T18:40:43.588Z,86.30
2018-08-18T18:45:48.556Z,86.80
2018-08-18T18:48:20.950Z,87.70
2018-08-18T18:50:53.467Z,88.80
2018-08-18T18:53:30.843Z,88.50
2018-08-18T18:56:04.823Z,89.30
2018-08-18T18:58:37.502Z,89.60
2018-08-18T19:01:10.315Z,90.00
2018-08-18T19:03:43.030Z,90.10
2018-08-18T19:06:15.784Z,90.40
2018-08-18T19:08:59.025Z,90.10
2018-08-18T19:11:31.903Z,90.20
2018-08-18T19:16:37.008Z,90.50
2018-08-18T19:19:10.686Z,90.80
2018-08-18T19:21:43.400Z,90.80
2018-08-18T19:24:21.997Z,91.00
2018-08-18T19:26:57.983Z,91.00
2018-08-18T19:29:30.924Z,91.20
2018-08-18T19:32:03.819Z,91.40
2018-08-18T19:34:36.819Z,91.50
2018-08-18T19:37:11.350Z,91.80
2018-08-18T19:39:44.068Z,91.80
2018-08-18T19:42:17.232Z,91.70
2018-08-18T19:44:51.186Z,92.00
2018-08-18T19:47:41.011Z,92.10
2018-08-18T19:50:14.256Z,92.10
2018-08-18T19:52:47.965Z,92.20
2018-08-18T19:55:20.598Z,92.40
2018-08-18T19:57:53.666Z,92.50
2018-08-18T20:00:26.719Z,92.80
2018-08-18T20:03:06.197Z,92.50
2018-08-18T20:05:41.376Z,92.80
2018-08-18T20:08:15.661Z,92.90
2018-08-18T20:10:55.518Z,93.40
2018-08-18T20:13:31.069Z,93.10
2018-08-18T20:16:03.857Z,93.60
2018-08-18T20:18:39.106Z,93.20
2018-08-18T20:21:12.217Z,93.50
2018-08-18T20:23:46.030Z,93.40
2018-08-18T20:26:19.715Z,93.70
2018-08-18T20:28:53.486Z,93.70
2018-08-18T20:31:27.154Z,93.70
2018-08-18T20:34:00.178Z,93.70
2018-08-18T20:36:33.313Z,93.70
2018-08-18T20:39:10.624Z,93.70
2018-08-18T20:41:45.061Z,93.70
2018-08-18T20:44:18.480Z,94.00
2018-08-18T20:46:52.253Z,94.10
2018-08-18T20:49:27.671Z,94.00
2018-08-18T20:52:05.437Z,94.20
2018-08-18T20:54:40.691Z,94.10
2018-08-18T20:57:14.260Z,94.30
2018-08-18T20:59:48.146Z,94.30
2018-08-18T21:02:21.970Z,94.40
2018-08-18T21:04:58.224Z,94.40
2018-08-18T21:07:33.313Z,94.40
2018-08-18T21:10:09.000Z,94.60
2018-08-18T21:12:48.120Z,94.70
2018-08-18T21:15:21.676Z,94.70
2018-08-18T21:17:58.074Z,95.80
2018-08-18T21:20:31.461Z,95.80
2018-08-18T21:23:04.648Z,95.10
2018-08-18T21:28:20.371Z,98.80
2018-08-18T21:30:55.279Z,99.90
2018-08-18T21:33:28.843Z,99.90
2018-08-18T21:36:02.067Z,99.90
2018-08-18T21:38:35.827Z,99.90
2018-08-18T21:41:09.335Z,99.90
2018-08-18T21:43:46.373Z,99.90
2018-08-18T21:46:20.390Z,99.10
2018-08-18T21:48:55.224Z,99.90
2018-08-18T21:51:28.229Z,95.50
2018-08-18T21:56:38.373Z,99.90
2018-08-18T21:59:12.868Z,95.80
2018-08-18T22:01:45.482Z,96.00
2018-08-18T22:04:18.731Z,95.90
2018-08-18T22:06:51.967Z,96.00
2018-08-18T22:09:27.713Z,96.00
2018-08-18T22:12:01.330Z,96.10
2018-08-18T22:14:34.755Z,96.20
2018-08-18T22:17:09.053Z,96.30
2018-08-18T22:19:42.433Z,96.20
2018-08-18T22:22:22.638Z,96.30
2018-08-18T22:24:55.759Z,96.40
2018-08-18T22:27:28.349Z,96.40
2018-08-18T22:30:00.937Z,96.50
2018-08-18T22:32:33.402Z,96.40
2018-08-18T22:35:08.440Z,96.40
2018-08-18T22:37:41.726Z,96.60
2018-08-18T22:40:14.423Z,96.60
2018-08-18T22:42:46.869Z,96.70
2018-08-18T22:45:23.129Z,97.00
2018-08-18T22:47:55.570Z,96.80
2018-08-18T22:50:28.280Z,96.80
2018-08-18T22:53:00.763Z,96.60
2018-08-18T22:55:33.497Z,96.80
2018-08-18T22:58:05.887Z,96.40
2018-08-18T23:00:41.395Z,96.50
2018-08-18T23:03:14.008Z,96.50
2018-08-18T23:05:46.490Z,96.60
2018-08-18T23:08:19.554Z,98.90
2018-08-18T23:10:52.055Z,96.70
2018-08-18T23:13:24.493Z,99.90
2018-08-18T23:15:57.128Z,96.90
2018-08-18T23:18:29.659Z,99.90
2018-08-18T23:21:02.042Z,98.50
2018-08-18T23:23:34.839Z,97.70
2018-08-18T23:26:07.239Z,97.00
2018-08-18T23:28:42.279Z,97.00
2018-08-18T23:31:14.704Z,97.10
2018-08-18T23:36:19.574Z,96.80
2018-08-18T23:41:30.326Z,96.70
2018-08-18T23:44:02.962Z,97.10
2018-08-18T23:46:35.369Z,97.10
2018-08-18T23:49:07.963Z,97.00
2018-08-18T23:54:18.321Z,99.90
2018-08-18T23:56:51.566Z,99.90
2018-08-18T23:59:24.244Z,99.90
